Time;durP1;ratioP1;P1;durP2;ratioP2;P2;SDS_P1;SDS_P2;PMS_P1;PMS_P2;Temp;Humidity;BMP_temperature;BMP_pressure;BME280_temperature;BME280_humidity;BME280_pressure;Samples;Min_cycle;Max_cycle;Signal;HPM_P1;HPM_P2
2023/10/12 00:01:27;;;;;;;1.47;1.37;;;19.70;99.90;;;;;;5064190;28;20444;-81
2023/10/12 00:03:58;;;;;;;0.50;0.30;;;19.70;99.90;;;;;;5056403;28;20440;-81
2023/10/12 00:06:26;;;;;;;0.50;0.30;;;19.80;99.90;;;;;;5055586;28;20493;-81
2023/10/12 00:08:53;;;;;;;1.10;0.50;;;19.80;99.90;;;;;;5047424;28;21054;-80
2023/10/12 00:11:20;;;;;;;1.57;1.17;;;19.70;99.90;;;;;;5063447;28;20476;-81
2023/10/12 00:13:51;;;;;;;0.70;0.70;;;19.70;99.90;;;;;;5058998;28;20441;-80
2023/10/12 00:16:19;;;;;;;2.20;1.57;;;19.60;99.90;;;;;;5060253;28;20452;-81
2023/10/12 00:18:49;;;;;;;2.90;2.00;;;19.60;99.90;;;;;;5063807;28;20531;-82
2023/10/12 00:21:25;;;;;;;0.60;0.50;;;19.60;99.90;;;;;;5070924;28;20795;-81
2023/10/12 00:23:53;;;;;;;0.50;0.40;;;19.60;99.90;;;;;;5064545;28;20440;-80
2023/10/12 00:26:19;;;;;;;0.50;0.40;;;19.50;99.90;;;;;;5063529;28;20461;-81
2023/10/12 00:28:50;;;;;;;1.07;0.70;;;19.50;99.90;;;;;;5064226;28;20834;-81
2023/10/12 00:31:19;;;;;;;1.30;0.80;;;19.50;99.90;;;;;;5055171;28;20453;-80
2023/10/12 00:33:50;;;;;;;3.13;0.93;;;19.40;99.90;;;;;;5063457;28;20806;-81
2023/10/12 00:36:21;;;;;;;2.50;0.77;;;19.40;99.90;;;;;;5070681;28;20463;-81
2023/10/12 00:38:48;;;;;;;0.50;0.40;;;19.40;99.90;;;;;;5056682;28;20433;-81
2023/10/12 00:41:17;;;;;;;0.90;0.80;;;19.40;99.90;;;;;;5063764;28;20437;-81
2023/10/12 00:43:57;;;;;;;0.50;0.37;;;19.40;99.90;;;;;;5055776;28;20441;-80
2023/10/12 00:46:39;;;;;;;0.50;0.40;;;19.30;99.90;;;;;;5055420;28;20468;-81
2023/10/12 00:49:19;;;;;;;0.50;0.30;;;19.30;99.90;;;;;;5048860;28;20465;-80
2023/10/12 00:51:50;;;;;;;3.30;3.00;;;19.20;99.90;;;;;;5055615;28;20520;-81
2023/10/12 00:54:25;;;;;;;0.50;0.30;;;19.10;99.90;;;;;;5055340;28;20444;-81
2023/10/12 00:57:01;;;;;;;0.50;0.40;;;19.00;99.90;;;;;;5071900;28;20452;-82
2023/10/12 00:59:31;;;;;;;0.50;0.30;;;19.00;99.90;;;;;;5071584;28;20478;-81
2023/10/12 01:01:58;;;;;;;0.50;0.30;;;18.90;99.90;;;;;;5067007;28;21068;-81
2023/10/12 01:04:27;;;;;;;0.80;0.50;;;18.90;99.90;;;;;;5075310;28;20543;-80
2023/10/12 01:06:59;;;;;;;0.50;0.30;;;18.90;99.90;;;;;;5055927;28;20497;-80
2023/10/12 01:09:29;;;;;;;0.50;0.30;;;18.90;99.90;;;;;;5058731;28;20472;-81
2023/10/12 01:11:58;;;;;;;0.90;0.70;;;18.90;99.90;;;;;;5078415;28;20494;-81
2023/10/12 01:14:28;;;;;;;0.83;0.50;;;18.90;99.90;;;;;;5070664;28;20470;-79
2023/10/12 01:16:58;;;;;;;0.50;0.30;;;19.00;99.90;;;;;;5062380;28;20447;-81
2023/10/12 01:19:30;;;;;;;0.50;0.40;;;18.90;99.90;;;;;;5070511;28;20433;-82
2023/10/12 01:22:05;;;;;;;1.93;1.13;;;18.90;99.90;;;;;;5061969;28;20486;-82
2023/10/12 01:24:31;;;;;;;0.50;0.30;;;18.90;99.90;;;;;;5096140;22;20491;-80
2023/10/12 01:26:59;;;;;;;0.50;0.40;;;18.80;99.90;;;;;;5085272;28;20485;-81
2023/10/12 01:29:26;;;;;;;0.70;0.70;;;18.80;99.90;;;;;;5084549;28;20533;-81
2023/10/12 01:32:20;;;;;;;0.50;0.30;;;18.80;99.90;;;;;;5084987;28;20443;-82
2023/10/12 01:34:52;;;;;;;1.80;0.70;;;18.80;99.90;;;;;;5083871;28;20478;-82
2023/10/12 01:37:22;;;;;;;0.50;0.40;;;18.70;99.90;;;;;;5080198;28;20444;-83
2023/10/12 01:39:56;;;;;;;0.50;0.30;;;18.60;99.90;;;;;;5075126;28;20516;-83
2023/10/12 01:42:25;;;;;;;0.70;0.70;;;18.50;99.90;;;;;;5088953;28;20986;-82
2023/10/12 01:44:54;;;;;;;1.47;1.47;;;18.40;99.90;;;;;;5082842;28;20460;-82
2023/10/12 01:47:21;;;;;;;0.50;0.50;;;18.40;99.90;;;;;;5080193;28;20444;-82
2023/10/12 01:49:49;;;;;;;0.73;0.73;;;18.30;99.90;;;;;;5076950;28;20508;-82
2023/10/12 01:52:17;;;;;;;0.60;0.50;;;18.20;99.90;;;;;;5085609;28;20501;-83
2023/10/12 01:54:48;;;;;;;2.37;2.17;;;18.20;99.90;;;;;;5085131;28;20459;-83
2023/10/12 01:57:18;;;;;;;0.97;0.87;;;18.10;99.90;;;;;;5079969;28;20440;-82
2023/10/12 01:59:45;;;;;;;0.50;0.40;;;18.00;99.90;;;;;;5091596;28;20464;-80
2023/10/12 02:02:15;;;;;;;0.60;0.50;;;17.90;99.90;;;;;;5085555;28;20440;-82
2023/10/12 02:04:43;;;;;;;0.50;0.30;;;17.80;99.90;;;;;;5084249;28;20460;-82
2023/10/12 02:07:10;;;;;;;0.50;0.40;;;17.70;99.90;;;;;;5081827;28;20449;-82
2023/10/12 02:09:37;;;;;;;0.70;0.60;;;17.60;99.90;;;;;;5081372;28;20484;-82
2023/10/12 02:12:11;;;;;;;0.50;0.30;;;17.40;99.90;;;;;;5077396;28;20467;-82
2023/10/12 02:14:39;;;;;;;1.80;1.70;;;17.30;99.90;;;;;;5085184;28;20456;-82
2023/10/12 02:17:07;;;;;;;0.50;0.43;;;17.10;99.90;;;;;;5081800;28;20437;-82
2023/10/12 02:19:38;;;;;;;0.50;0.40;;;17.00;99.90;;;;;;5081325;28;20441;-83
2023/10/12 02:22:05;;;;;;;0.50;0.40;;;16.80;99.90;;;;;;5073704;28;20467;-83
2023/10/12 02:24:35;;;;;;;0.60;0.60;;;16.70;99.90;;;;;;5081740;28;20465;-82
2023/10/12 02:27:03;;;;;;;0.50;0.50;;;16.70;99.90;;;;;;5086364;28;20436;-82
2023/10/12 02:29:35;;;;;;;0.77;0.77;;;16.60;99.90;;;;;;5092429;28;20498;-81
2023/10/12 02:32:22;;;;;;;1.07;0.90;;;16.50;99.90;;;;;;5082337;28;20526;-81
2023/10/12 02:34:55;;;;;;;2.93;1.47;;;16.40;99.90;;;;;;5082685;28;21029;-82
2023/10/12 02:37:24;;;;;;;0.50;0.40;;;16.40;99.90;;;;;;5079618;28;20444;-81
2023/10/12 02:39:53;;;;;;;7.03;6.73;;;16.30;99.90;;;;;;5091217;28;20528;-82
2023/10/12 02:42:38;;;;;;;0.50;0.37;;;16.30;99.90;;;;;;5085505;28;20888;-82
2023/10/12 02:45:16;;;;;;;0.50;0.40;;;16.20;99.90;;;;;;5081102;28;20531;-82
2023/10/12 02:47:45;;;;;;;26.43;2.10;;;16.10;99.90;;;;;;5081206;28;20436;-80
2023/10/12 02:50:27;;;;;;;0.50;0.40;;;16.10;99.90;;;;;;5084101;28;20549;-81
2023/10/12 02:52:54;;;;;;;0.50;0.40;;;16.10;99.90;;;;;;5084368;28;20444;-81
2023/10/12 02:55:40;;;;;;;0.50;0.37;;;16.00;99.90;;;;;;5084043;28;20463;-81
2023/10/12 02:58:17;;;;;;;0.50;0.30;;;16.00;99.90;;;;;;5067888;28;20435;-82
2023/10/12 03:00:47;;;;;;;0.93;0.93;;;16.00;99.90;;;;;;5083484;28;20431;-82
2023/10/12 03:03:23;;;;;;;0.50;0.40;;;16.00;99.90;;;;;;5077058;28;20432;-81
2023/10/12 03:05:52;;;;;;;1.53;1.13;;;15.90;99.90;;;;;;5075240;28;20463;-82
2023/10/12 03:08:20;;;;;;;2.03;1.93;;;15.90;99.90;;;;;;5083961;28;20783;-82
2023/10/12 03:11:03;;;;;;;0.50;0.30;;;15.90;99.90;;;;;;5075646;28;20476;-80
2023/10/12 03:13:35;;;;;;;0.50;0.30;;;15.90;99.90;;;;;;5084026;28;20432;-82
2023/10/12 03:16:12;;;;;;;0.50;0.40;;;15.80;99.90;;;;;;5081187;28;20440;-82
2023/10/12 03:18:39;;;;;;;1.70;1.60;;;15.70;99.90;;;;;;5088336;28;20440;-82
2023/10/12 03:21:11;;;;;;;1.63;1.53;;;15.70;99.90;;;;;;5084124;28;20428;-82
2023/10/12 03:23:39;;;;;;;0.50;0.40;;;15.70;99.90;;;;;;5084127;28;20451;-81
2023/10/12 03:26:17;;;;;;;0.50;0.40;;;15.60;99.90;;;;;;5080493;28;20437;-82
2023/10/12 03:28:45;;;;;;;0.50;0.40;;;15.60;99.90;;;;;;5080332;28;20437;-80
2023/10/12 03:31:21;;;;;;;0.50;0.40;;;15.60;99.90;;;;;;5072009;28;20483;-82
2023/10/12 03:33:53;;;;;;;2.00;1.90;;;15.60;99.90;;;;;;5080198;28;20441;-81
2023/10/12 03:36:23;;;;;;;0.50;0.33;;;15.60;99.90;;;;;;5080363;28;20445;-81
2023/10/12 03:39:07;;;;;;;0.50;0.40;;;15.60;99.90;;;;;;5080303;28;20462;-83
2023/10/12 03:41:46;;;;;;;0.50;0.40;;;15.60;99.90;;;;;;5078917;28;20894;-82
2023/10/12 03:44:18;;;;;;;0.80;0.80;;;15.60;99.90;;;;;;5068044;28;20463;-82
2023/10/12 03:46:57;;;;;;;0.60;0.60;;;15.60;99.90;;;;;;5075464;28;20432;-82
2023/10/12 03:49:31;;;;;;;0.50;0.40;;;15.60;99.90;;;;;;5072741;28;20483;-82
2023/10/12 03:52:00;;;;;;;1.43;1.33;;;15.50;99.90;;;;;;5080096;28;20431;-82
2023/10/12 03:54:29;;;;;;;1.33;1.23;;;15.50;99.90;;;;;;5085954;28;20463;-82
2023/10/12 03:57:03;;;;;;;0.83;0.77;;;15.50;99.90;;;;;;5076811;28;20483;-83
2023/10/12 03:59:37;;;;;;;0.50;0.40;;;15.50;99.90;;;;;;5086185;28;20793;-82
2023/10/12 04:02:13;;;;;;;0.60;0.60;;;15.50;99.90;;;;;;5080265;28;20474;-82
2023/10/12 04:04:46;;;;;;;0.50;0.40;;;15.40;99.90;;;;;;5079244;28;20470;-82
2023/10/12 04:07:19;;;;;;;0.50;0.40;;;15.40;99.90;;;;;;5066808;28;20838;-82
2023/10/12 04:09:54;;;;;;;1.20;1.10;;;15.30;99.90;;;;;;5091689;28;20467;-80
2023/10/12 04:12:49;;;;;;;0.50;0.37;;;15.30;99.90;;;;;;5080132;28;20440;-82
2023/10/12 04:15:27;;;;;;;0.60;0.60;;;15.30;99.90;;;;;;5079981;28;20892;-83
2023/10/12 04:17:59;;;;;;;0.50;0.40;;;15.30;99.90;;;;;;5081121;28;20440;-82
2023/10/12 04:20:28;;;;;;;0.67;0.67;;;15.30;99.90;;;;;;5093075;28;20444;-83
2023/10/12 04:25:49;;;;;;;0.50;0.40;;;15.20;99.90;;;;;;5067622;28;20457;-84
2023/10/12 04:28:23;;;;;;;1.00;0.97;;;15.20;99.90;;;;;;5074392;28;20440;-82
2023/10/12 04:31:20;;;;;;;0.50;0.40;;;15.20;99.90;;;;;;5081784;28;20551;-83
2023/10/12 04:34:05;;;;;;;0.50;0.40;;;15.10;99.90;;;;;;5076640;28;20804;-82
2023/10/12 04:36:43;;;;;;;1.57;1.50;;;15.20;99.90;;;;;;5080405;28;20483;-82
2023/10/12 04:39:15;;;;;;;1.53;1.07;;;15.20;99.90;;;;;;5081201;28;20833;-81
2023/10/12 04:41:47;;;;;;;0.50;0.30;;;15.10;99.90;;;;;;5080925;28;20930;-82
2023/10/12 04:44:39;;;;;;;0.50;0.40;;;15.10;99.90;;;;;;5088282;28;20455;-82
2023/10/12 04:47:09;;;;;;;0.50;0.30;;;15.10;99.90;;;;;;5087638;28;20437;-82
2023/10/12 04:52:36;;;;;;;2.60;1.77;;;15.10;99.90;;;;;;5035826;28;20947;-83
2023/10/12 04:55:21;;;;;;;0.50;0.40;;;15.00;99.90;;;;;;5085318;28;20548;-82
2023/10/12 04:58:09;;;;;;;0.50;0.30;;;15.00;99.90;;;;;;5087672;28;20458;-83
2023/10/12 05:00:48;;;;;;;0.50;0.40;;;15.00;99.90;;;;;;5086957;28;20443;-82
2023/10/12 05:03:25;;;;;;;3.27;1.33;;;15.00;99.90;;;;;;5084147;28;20515;-82
2023/10/12 05:06:04;;;;;;;0.90;0.90;;;15.00;99.90;;;;;;5082755;28;20466;-82
2023/10/12 05:08:32;;;;;;;2.20;1.93;;;14.90;99.90;;;;;;5074771;28;20476;-78
2023/10/12 05:10:58;;;;;;;0.90;0.60;;;14.90;99.90;;;;;;5075831;28;20998;-83
2023/10/12 05:13:25;;;;;;;0.73;0.73;;;14.90;99.90;;;;;;5087658;28;20449;-82
2023/10/12 05:15:55;;;;;;;2.20;2.00;;;14.90;99.90;;;;;;5087025;28;20459;-82
2023/10/12 05:18:23;;;;;;;0.83;0.83;;;14.90;99.90;;;;;;5076719;28;20441;-82
2023/10/12 05:20:50;;;;;;;1.60;1.50;;;14.90;99.90;;;;;;5092642;28;20432;-82
2023/10/12 05:23:18;;;;;;;3.77;3.00;;;14.80;99.90;;;;;;5087294;28;20930;-83
2023/10/12 05:25:53;;;;;;;1.10;0.63;;;14.80;99.90;;;;;;5079122;28;20474;-82
2023/10/12 05:28:27;;;;;;;5.10;4.03;;;14.80;99.90;;;;;;5086990;28;20531;-82
2023/10/12 05:30:59;;;;;;;0.70;0.70;;;14.80;99.90;;;;;;5079054;28;20569;-84
2023/10/12 05:33:38;;;;;;;0.97;0.60;;;14.80;99.90;;;;;;5080008;28;20448;-83
2023/10/12 05:36:09;;;;;;;4.27;3.20;;;14.80;99.90;;;;;;5086580;28;20444;-84
2023/10/12 05:38:39;;;;;;;0.50;0.40;;;14.80;99.90;;;;;;5083187;28;20432;-83
2023/10/12 05:41:08;;;;;;;3.90;2.00;;;14.80;99.90;;;;;;5091325;28;20448;-84
2023/10/12 05:43:37;;;;;;;1.83;1.70;;;14.70;99.90;;;;;;5074864;28;20943;-83
2023/10/12 05:46:10;;;;;;;0.50;0.40;;;14.70;99.90;;;;;;5085975;28;20462;-84
2023/10/12 05:48:41;;;;;;;1.23;0.80;;;14.70;99.90;;;;;;5088714;28;20436;-79
2023/10/12 05:51:10;;;;;;;0.50;0.40;;;14.70;99.90;;;;;;5086421;28;20562;-82
2023/10/12 05:53:38;;;;;;;1.07;1.07;;;14.70;99.90;;;;;;5085257;28;20923;-82
2023/10/12 05:56:06;;;;;;;2.40;2.30;;;14.70;99.90;;;;;;5084287;28;20822;-82
2023/10/12 05:58:34;;;;;;;0.50;0.40;;;14.70;99.90;;;;;;5087047;28;20439;-81
2023/10/12 06:01:08;;;;;;;5.17;0.73;;;14.70;99.90;;;;;;5089894;28;20846;-82
2023/10/12 06:03:36;;;;;;;0.50;0.50;;;14.70;99.90;;;;;;5075334;28;20475;-82
2023/10/12 06:06:04;;;;;;;2.47;1.87;;;14.80;99.90;;;;;;5084304;28;20946;-83
2023/10/12 06:08:32;;;;;;;0.50;0.30;;;14.80;99.90;;;;;;5087491;28;20435;-80
2023/10/12 06:11:01;;;;;;;0.60;0.60;;;14.80;99.90;;;;;;5087357;28;20551;-82
2023/10/12 06:13:32;;;;;;;2.80;2.57;;;14.80;99.90;;;;;;5075609;28;20803;-81
2023/10/12 06:15:59;;;;;;;0.50;0.40;;;14.80;99.90;;;;;;5083086;28;20457;-81
2023/10/12 06:18:30;;;;;;;2.20;2.00;;;14.80;99.90;;;;;;5082985;28;20437;-81
2023/10/12 06:20:59;;;;;;;0.50;0.40;;;14.80;99.90;;;;;;5084206;28;20441;-82
2023/10/12 06:23:27;;;;;;;0.50;0.40;;;14.80;99.90;;;;;;5075652;28;20800;-83
2023/10/12 06:25:55;;;;;;;1.23;1.10;;;14.80;99.90;;;;;;5081271;28;20471;-82
2023/10/12 06:28:24;;;;;;;0.50;0.40;;;14.80;99.90;;;;;;5083762;28;20444;-82
2023/10/12 06:30:52;;;;;;;1.93;1.60;;;14.80;99.90;;;;;;5081969;28;20831;-81
2023/10/12 06:33:22;;;;;;;1.53;1.47;;;14.80;99.90;;;;;;5090766;28;20474;-81
2023/10/12 06:35:59;;;;;;;0.63;0.63;;;14.80;99.90;;;;;;5081541;28;20468;-82
2023/10/12 06:41:58;;;;;;;0.50;0.40;;;14.90;99.90;;;;;;5070962;28;20421;-81
2023/10/12 06:44:25;;;;;;;0.80;0.67;;;14.90;99.90;;;;;;5075623;28;20479;-82
2023/10/12 06:46:53;;;;;;;0.50;0.40;;;14.90;99.90;;;;;;5087520;28;20450;-82
2023/10/12 06:49:22;;;;;;;1.60;1.50;;;14.90;99.90;;;;;;5091168;28;20445;-83
2023/10/12 06:51:53;;;;;;;1.70;1.03;;;14.90;99.90;;;;;;5079911;28;20998;-82
2023/10/12 06:54:31;;;;;;;0.80;0.80;;;14.90;99.90;;;;;;5089846;28;20890;-82
2023/10/12 06:57:29;;;;;;;16.03;3.30;;;15.00;99.90;;;;;;5096008;28;20463;-81
2023/10/12 06:59:54;;;;;;;0.50;0.40;;;15.00;99.90;;;;;;5094304;28;20431;-81
2023/10/12 07:02:24;;;;;;;1.87;1.77;;;15.00;99.90;;;;;;5094157;28;20435;-82
2023/10/12 07:04:53;;;;;;;0.60;0.40;;;14.90;99.90;;;;;;5093569;28;20455;-82
2023/10/12 07:07:26;;;;;;;0.50;0.40;;;15.00;99.90;;;;;;5093681;28;20485;-82
2023/10/12 07:09:59;;;;;;;0.50;0.33;;;15.00;99.90;;;;;;5088480;28;20506;-81
2023/10/12 07:12:26;;;;;;;0.90;0.90;;;15.10;99.90;;;;;;5075195;28;21022;-83
2023/10/12 07:14:55;;;;;;;1.47;1.37;;;15.10;99.90;;;;;;5073858;28;20832;-81
2023/10/12 07:17:31;;;;;;;2.20;2.10;;;15.10;99.90;;;;;;5072927;28;20440;-81
2023/10/12 07:19:58;;;;;;;0.70;0.70;;;15.10;99.90;;;;;;5074460;28;20470;-81
2023/10/12 07:22:24;;;;;;;2.80;2.63;;;15.20;99.90;;;;;;5081756;28;20516;-82
2023/10/12 07:24:53;;;;;;;0.50;0.40;;;15.10;99.90;;;;;;5079081;28;20464;-82
2023/10/12 07:27:21;;;;;;;0.73;0.73;;;15.20;99.90;;;;;;5094306;28;20517;-83
2023/10/12 07:30:02;;;;;;;0.60;0.57;;;15.20;99.90;;;;;;5096763;22;20562;-80
2023/10/12 07:32:38;;;;;;;0.70;0.70;;;15.20;99.90;;;;;;5081495;28;20439;-80
2023/10/12 07:35:11;;;;;;;1.20;0.97;;;15.20;99.90;;;;;;5081650;28;20527;-80
2023/10/12 07:37:42;;;;;;;1.10;1.10;;;15.20;99.90;;;;;;5073589;28;20437;-80
2023/10/12 07:40:18;;;;;;;1.00;0.90;;;15.20;99.90;;;;;;5072863;28;20465;-81
2023/10/12 07:42:46;;;;;;;3.23;1.33;;;15.20;99.90;;;;;;5059188;28;20437;-80
2023/10/12 07:45:14;;;;;;;0.50;0.40;;;15.20;99.90;;;;;;5072449;28;20940;-78
2023/10/12 07:47:46;;;;;;;1.27;1.17;;;15.20;99.90;;;;;;5072326;28;20879;-80
2023/10/12 07:50:14;;;;;;;0.70;0.70;;;15.20;99.90;;;;;;5072322;28;20473;-80
2023/10/12 07:52:46;;;;;;;1.67;0.90;;;15.20;99.90;;;;;;5072983;28;20440;-80
2023/10/12 07:55:14;;;;;;;0.50;0.30;;;15.20;99.90;;;;;;5072001;28;20536;-80
2023/10/12 07:57:41;;;;;;;1.67;1.13;;;15.30;99.90;;;;;;5072628;28;20464;-80
2023/10/12 08:03:18;;;;;;;0.50;0.40;;;15.30;99.90;;;;;;5061339;28;20466;-79
2023/10/12 08:05:45;;;;;;;0.50;0.30;;;15.40;99.90;;;;;;5072713;28;21002;-80
2023/10/12 08:08:33;;;;;;;0.50;0.40;;;15.30;99.90;;;;;;5073994;28;20548;-78
2023/10/12 08:11:08;;;;;;;0.60;0.53;;;15.40;99.90;;;;;;5072696;28;20549;-80
2023/10/12 08:13:39;;;;;;;0.50;0.30;;;15.40;99.90;;;;;;5072828;28;20846;-80
2023/10/12 08:16:13;;;;;;;0.50;0.30;;;15.40;99.90;;;;;;5073242;28;20889;-80
2023/10/12 08:21:30;;;;;;;0.50;0.30;;;15.50;99.90;;;;;;5076767;28;20436;-80
2023/10/12 08:24:04;;;;;;;0.50;0.40;;;15.50;99.90;;;;;;5076801;28;20445;-79
2023/10/12 08:26:47;;;;;;;1.57;1.47;;;15.60;99.90;;;;;;5076069;28;20475;-80
2023/10/12 08:29:21;;;;;;;0.60;0.40;;;15.60;99.90;;;;;;5075571;28;20464;-79
2023/10/12 08:31:48;;;;;;;2.57;2.37;;;15.70;99.90;;;;;;5077097;28;20471;-80
2023/10/12 08:37:17;;;;;;;0.70;0.70;;;15.70;99.90;;;;;;5075156;28;20436;-80
2023/10/12 08:40:07;;;;;;;0.50;0.40;;;15.80;99.90;;;;;;5076478;28;20456;-80
2023/10/12 08:42:54;;;;;;;0.60;0.60;;;15.80;99.90;;;;;;5076942;28;20444;-80
2023/10/12 08:45:23;;;;;;;0.50;0.30;;;15.80;99.90;;;;;;5076103;28;20467;-82
2023/10/12 08:47:53;;;;;;;0.50;0.40;;;15.80;99.90;;;;;;5076335;28;20858;-77
2023/10/12 08:53:07;;;;;;;0.50;0.30;;;15.90;99.90;;;;;;5076227;28;20955;-80
2023/10/12 08:55:36;;;;;;;0.50;0.30;;;15.90;99.90;;;;;;5075286;28;20444;-80
2023/10/12 08:58:12;;;;;;;1.43;1.07;;;15.90;99.90;;;;;;5075397;28;20959;-80
2023/10/12 09:00:43;;;;;;;9.20;2.73;;;15.90;99.90;;;;;;5075004;28;20437;-79
2023/10/12 09:03:24;;;;;;;0.50;0.30;;;15.90;99.90;;;;;;5076072;28;20527;-81
2023/10/12 09:05:54;;;;;;;0.50;0.40;;;15.90;99.90;;;;;;5061999;28;20506;-81
2023/10/12 09:08:39;;;;;;;0.50;0.30;;;15.90;99.90;;;;;;5075358;28;20464;-80
2023/10/12 09:11:14;;;;;;;0.50;0.40;;;15.90;99.90;;;;;;5075417;28;20468;-82
2023/10/12 09:13:45;;;;;;;3.30;1.53;;;15.90;99.90;;;;;;5075349;28;20958;-81
2023/10/12 09:16:14;;;;;;;0.70;0.67;;;15.90;99.90;;;;;;5075421;28;20444;-79
2023/10/12 09:18:44;;;;;;;0.63;0.63;;;15.90;99.90;;;;;;5075645;28;20513;-80
2023/10/12 09:21:24;;;;;;;0.50;0.40;;;15.90;99.90;;;;;;5076165;28;20449;-81
2023/10/12 09:23:52;;;;;;;0.50;0.40;;;15.90;99.90;;;;;;5061194;28;20433;-81
2023/10/12 09:26:30;;;;;;;0.50;0.40;;;15.90;99.90;;;;;;5074925;28;20441;-79
2023/10/12 09:31:54;;;;;;;0.50;0.40;;;16.00;99.90;;;;;;5062080;28;20514;-81
2023/10/12 09:34:42;;;;;;;0.50;0.30;;;16.10;99.90;;;;;;5075241;28;20444;-78
2023/10/12 09:37:16;;;;;;;0.50;0.40;;;16.10;99.90;;;;;;5075152;28;20444;-81
2023/10/12 09:39:45;;;;;;;0.50;0.37;;;16.20;99.90;;;;;;5075078;28;20459;-80
2023/10/12 09:42:22;;;;;;;0.50;0.40;;;16.20;99.90;;;;;;5075988;28;20876;-80
2023/10/12 09:44:54;;;;;;;0.93;0.93;;;16.30;99.90;;;;;;5060244;28;20478;-78
2023/10/12 09:47:25;;;;;;;0.50;0.40;;;16.30;99.90;;;;;;5075377;28;20528;-78
2023/10/12 09:49:56;;;;;;;0.50;0.30;;;16.40;99.90;;;;;;5075587;28;20460;-81
2023/10/12 09:52:42;;;;;;;0.50;0.40;;;16.40;99.90;;;;;;5075069;28;20995;-80
2023/10/12 09:55:14;;;;;;;1.37;1.27;;;16.50;99.90;;;;;;5075496;28;20441;-81
2023/10/12 09:57:49;;;;;;;0.50;0.40;;;16.50;99.90;;;;;;5075205;28;20516;-81
2023/10/12 10:00:27;;;;;;;0.73;0.73;;;16.60;99.90;;;;;;5074908;28;20451;-81
2023/10/12 10:03:02;;;;;;;0.50;0.40;;;16.60;99.90;;;;;;5060877;28;20444;-81
2023/10/12 10:05:52;;;;;;;0.50;0.40;;;16.70;99.90;;;;;;5075187;28;20436;-81
2023/10/12 10:08:26;;;;;;;0.80;0.80;;;16.70;99.90;;;;;;5075473;28;20464;-80
2023/10/12 10:10:58;;;;;;;0.60;0.50;;;16.80;99.90;;;;;;5061250;28;20433;-80
2023/10/12 10:13:46;;;;;;;0.50;0.30;;;16.80;99.90;;;;;;5074666;28;20436;-79
2023/10/12 10:16:17;;;;;;;0.50;0.30;;;16.80;99.90;;;;;;5074981;28;20890;-81
2023/10/12 10:18:49;;;;;;;0.50;0.30;;;16.80;99.90;;;;;;5074571;28;20452;-83
2023/10/12 10:21:22;;;;;;;0.50;0.30;;;16.80;99.90;;;;;;5075562;28;20924;-82
2023/10/12 10:23:52;;;;;;;0.50;0.30;;;16.90;99.90;;;;;;5058790;28;20441;-80
2023/10/12 10:26:23;;;;;;;0.50;0.30;;;16.90;99.90;;;;;;5074914;28;21185;-80
2023/10/12 10:29:04;;;;;;;1.80;0.83;;;17.00;99.90;;;;;;5059151;28;20971;-83
2023/10/12 10:31:35;;;;;;;0.50;0.40;;;17.00;99.90;;;;;;5075430;28;20589;-80
2023/10/12 10:34:06;;;;;;;0.90;0.90;;;17.10;99.90;;;;;;5074993;28;20441;-80
2023/10/12 10:36:36;;;;;;;0.50;0.30;;;17.10;99.90;;;;;;5074720;28;20444;-80
2023/10/12 10:39:28;;;;;;;23.13;13.63;;;17.10;99.90;;;;;;5074217;28;20551;-79
2023/10/12 10:42:00;;;;;;;0.50;0.30;;;17.10;99.90;;;;;;5059878;28;20432;-80
2023/10/12 10:44:27;;;;;;;0.50;0.40;;;17.20;99.90;;;;;;5074735;28;20441;-80
2023/10/12 10:46:57;;;;;;;0.50;0.30;;;17.30;99.90;;;;;;5074686;28;20440;-79
2023/10/12 10:49:30;;;;;;;0.50;0.40;;;17.20;99.90;;;;;;5074292;28;20466;-80
2023/10/12 10:52:13;;;;;;;0.50;0.30;;;17.20;99.90;;;;;;5059585;28;20483;-76
2023/10/12 10:54:56;;;;;;;0.50;0.30;;;17.20;99.90;;;;;;5074282;28;20769;-80
2023/10/12 10:57:31;;;;;;;0.50;0.30;;;17.30;99.90;;;;;;5074156;28;20436;-82
2023/10/12 10:59:58;;;;;;;0.50;0.40;;;17.30;99.90;;;;;;5058740;28;20460;-80
2023/10/12 11:02:25;;;;;;;0.50;0.30;;;17.30;99.90;;;;;;5074420;28;20433;-80
2023/10/12 11:04:55;;;;;;;1.27;1.17;;;17.30;99.90;;;;;;5057418;28;20443;-81
2023/10/12 11:07:21;;;;;;;0.50;0.40;;;17.30;99.90;;;;;;5075130;28;20436;-80
2023/10/12 11:10:05;;;;;;;2.40;2.20;;;17.20;99.90;;;;;;5074783;28;20532;-78
2023/10/12 11:12:32;;;;;;;0.50;0.40;;;17.20;99.90;;;;;;5074553;28;20468;-79
2023/10/12 11:15:05;;;;;;;0.50;0.40;;;17.20;99.90;;;;;;5075865;28;20471;-79
2023/10/12 11:17:35;;;;;;;1.27;1.17;;;17.20;99.90;;;;;;5075907;28;20437;-80
2023/10/12 11:20:07;;;;;;;0.50;0.40;;;17.20;99.90;;;;;;5075314;28;20453;-80
2023/10/12 11:22:37;;;;;;;0.50;0.30;;;17.20;99.90;;;;;;5073757;28;20612;-80
2023/10/12 11:25:07;;;;;;;1.17;1.10;;;17.20;99.90;;;;;;5073749;28;20444;-78
2023/10/12 11:27:35;;;;;;;0.50;0.40;;;17.30;99.90;;;;;;5072902;28;20519;-80
2023/10/12 11:30:07;;;;;;;0.50;0.43;;;17.30;99.90;;;;;;5072944;28;20579;-80
2023/10/12 11:32:53;;;;;;;0.50;0.30;;;17.40;99.90;;;;;;5073316;28;20479;-80
2023/10/12 11:35:33;;;;;;;0.50;0.30;;;17.40;99.90;;;;;;5073679;28;20531;-80
2023/10/12 11:38:00;;;;;;;0.50;0.30;;;17.40;99.90;;;;;;5058313;28;20447;-78
2023/10/12 11:40:31;;;;;;;0.50;0.30;;;17.50;99.90;;;;;;5073420;28;20435;-81
2023/10/12 11:42:58;;;;;;;0.50;0.30;;;17.60;99.90;;;;;;5057972;28;20867;-77
2023/10/12 11:45:33;;;;;;;0.50;0.30;;;17.60;99.90;;;;;;5073970;28;20539;-80
2023/10/12 11:48:20;;;;;;;0.50;0.40;;;17.70;99.90;;;;;;5059100;28;20436;-80
2023/10/12 11:50:48;;;;;;;0.50;0.30;;;17.70;99.90;;;;;;5072434;28;20447;-80
2023/10/12 11:53:17;;;;;;;0.70;0.70;;;17.60;99.90;;;;;;5073559;28;20477;-83
2023/10/12 11:55:48;;;;;;;0.50;0.30;;;17.60;99.90;;;;;;5073131;28;20847;-80
2023/10/12 11:58:19;;;;;;;0.50;0.30;;;17.60;99.90;;;;;;5073149;28;20859;-80
2023/10/12 12:00:48;;;;;;;0.50;0.30;;;17.60;99.90;;;;;;5072808;28;20445;-82
2023/10/12 12:03:15;;;;;;;0.50;0.30;;;17.50;99.90;;;;;;5076528;28;20447;-81
2023/10/12 12:05:43;;;;;;;0.50;0.30;;;17.40;99.90;;;;;;5074970;28;20483;-80
2023/10/12 12:08:14;;;;;;;0.50;0.30;;;17.40;99.90;;;;;;5074987;28;20436;-79
2023/10/12 12:10:46;;;;;;;0.50;0.40;;;17.40;99.90;;;;;;5075354;28;20437;-79
2023/10/12 12:13:15;;;;;;;1.50;1.40;;;17.40;99.90;;;;;;5074466;28;20473;-81
2023/10/12 12:15:43;;;;;;;1.20;0.80;;;17.40;99.90;;;;;;5075198;28;20887;-79
2023/10/12 12:18:14;;;;;;;1.90;0.97;;;17.40;99.90;;;;;;5075323;28;20464;-79
2023/10/12 12:20:44;;;;;;;0.50;0.30;;;17.30;99.90;;;;;;5074273;28;20487;-79
2023/10/12 12:23:11;;;;;;;0.50;0.30;;;17.30;99.90;;;;;;5074169;28;20464;-80
2023/10/12 12:25:39;;;;;;;0.50;0.30;;;17.40;99.90;;;;;;5074019;28;20440;-80
2023/10/12 12:28:07;;;;;;;0.50;0.30;;;17.40;99.90;;;;;;5072477;28;20445;-80
2023/10/12 12:30:39;;;;;;;0.50;0.30;;;17.40;99.90;;;;;;5073194;28;20480;-80
2023/10/12 12:33:09;;;;;;;0.50;0.40;;;17.50;99.90;;;;;;5073140;28;20552;-80
2023/10/12 12:35:38;;;;;;;0.50;0.30;;;17.50;99.90;;;;;;5072993;28;20437;-77
2023/10/12 12:38:18;;;;;;;0.50;0.30;;;17.60;99.90;;;;;;5073458;28;20460;-80
2023/10/12 12:40:45;;;;;;;0.50;0.30;;;17.60;99.90;;;;;;5072406;28;20445;-80
2023/10/12 12:43:11;;;;;;;0.50;0.40;;;17.70;99.90;;;;;;5073054;28;20449;-80
2023/10/12 12:45:41;;;;;;;0.50;0.30;;;17.70;99.90;;;;;;5072531;28;20914;-79
2023/10/12 12:48:08;;;;;;;0.50;0.30;;;17.80;99.90;;;;;;5073123;28;20436;-80
2023/10/12 12:50:34;;;;;;;1.47;1.37;;;17.80;99.90;;;;;;5072592;28;20458;-80
2023/10/12 12:53:04;;;;;;;1.37;1.27;;;17.70;99.90;;;;;;5072737;28;20563;-77
2023/10/12 12:55:32;;;;;;;0.50;0.37;;;17.70;99.90;;;;;;5072871;28;20445;-77
2023/10/12 12:57:59;;;;;;;2.20;2.10;;;17.70;99.90;;;;;;5073319;28;20475;-80
2023/10/12 13:00:26;;;;;;;0.50;0.30;;;17.70;99.90;;;;;;5072185;28;20436;-80
2023/10/12 13:02:58;;;;;;;2.83;1.33;;;17.70;99.90;;;;;;5074288;28;20466;-80
2023/10/12 13:05:27;;;;;;;0.50;0.37;;;17.60;99.90;;;;;;5076752;28;20932;-82
2023/10/12 13:07:55;;;;;;;0.50;0.30;;;17.70;99.90;;;;;;5076194;28;20452;-81
2023/10/12 13:10:22;;;;;;;0.50;0.30;;;17.70;99.90;;;;;;5076667;28;20876;-83
2023/10/12 13:12:49;;;;;;;0.50;0.30;;;17.70;99.90;;;;;;5076336;28;20480;-81
2023/10/12 13:15:16;;;;;;;0.50;0.30;;;17.70;99.90;;;;;;5075970;28;20459;-80
2023/10/12 13:17:43;;;;;;;0.50;0.30;;;17.70;99.90;;;;;;5075680;28;20970;-80
2023/10/12 13:20:21;;;;;;;0.50;0.30;;;17.70;99.90;;;;;;5076131;28;20462;-81
2023/10/12 13:22:48;;;;;;;0.50;0.30;;;17.70;99.90;;;;;;5075872;28;20440;-80
2023/10/12 13:25:17;;;;;;;0.50;0.30;;;17.80;99.90;;;;;;5075992;28;20982;-80
2023/10/12 13:27:45;;;;;;;0.50;0.30;;;17.80;99.90;;;;;;5075563;28;20476;-81
2023/10/12 13:30:14;;;;;;;0.50;0.30;;;17.90;99.90;;;;;;5076123;28;20468;-82
2023/10/12 13:32:42;;;;;;;0.70;0.70;;;17.90;99.90;;;;;;5075703;28;20494;-79
2023/10/12 13:35:28;;;;;;;0.50;0.40;;;17.90;99.90;;;;;;5076197;28;20444;-82